sensor_id;sensor_type;location;lat;lon;timestamp;P1;durP1;ratioP1;P2;durP2;ratioP2
23304;SDS011;11821;51.456;8.844;2023-03-01T00:00:38;8.50;;;6.72;;
23304;SDS011;11821;51.456;8.844;2023-03-01T00:03:05;7.55;;;6.55;;
23304;SDS011;11821;51.456;8.844;2023-03-01T00:05:31;8.20;;;6.30;;
23304;SDS011;11821;51.456;8.844;2023-03-01T00:07:58;10.32;;;6.25;;
23304;SDS011;11821;51.456;8.844;2023-03-01T00:10:24;7.35;;;5.90;;
23304;SDS011;11821;51.456;8.844;2023-03-01T00:12:51;9.73;;;6.35;;
23304;SDS011;11821;51.456;8.844;2023-03-01T00:15:18;7.63;;;5.90;;
23304;SDS011;11821;51.456;8.844;2023-03-01T00:17:45;8.93;;;5.80;;
23304;SDS011;11821;51.456;8.844;2023-03-01T00:20:11;8.65;;;6.45;;
23304;SDS011;11821;51.456;8.844;2023-03-01T00:22:37;7.82;;;6.63;;
23304;SDS011;11821;51.456;8.844;2023-03-01T00:25:04;7.63;;;5.63;;
23304;SDS011;11821;51.456;8.844;2023-03-01T00:27:30;7.78;;;6.13;;
23304;SDS011;11821;51.456;8.844;2023-03-01T00:29:57;7.72;;;5.97;;
23304;SDS011;11821;51.456;8.844;2023-03-01T00:32:24;7.63;;;6.03;;
23304;SDS011;11821;51.456;8.844;2023-03-01T00:34:51;10.68;;;7.10;;
23304;SDS011;11821;51.456;8.844;2023-03-01T00:37:21;9.32;;;6.30;;
23304;SDS011;11821;51.456;8.844;2023-03-01T00:39:47;11.10;;;6.95;;
23304;SDS011;11821;51.456;8.844;2023-03-01T00:42:15;8.65;;;6.82;;
23304;SDS011;11821;51.456;8.844;2023-03-01T00:44:41;11.05;;;6.05;;
23304;SDS011;11821;51.456;8.844;2023-03-01T00:47:08;10.90;;;7.20;;
23304;SDS011;11821;51.456;8.844;2023-03-01T00:49:34;9.20;;;6.60;;
23304;SDS011;11821;51.456;8.844;2023-03-01T00:52:01;8.65;;;6.72;;
23304;SDS011;11821;51.456;8.844;2023-03-01T00:54:27;9.23;;;6.95;;
23304;SDS011;11821;51.456;8.844;2023-03-01T00:56:54;8.00;;;6.38;;
23304;SDS011;11821;51.456;8.844;2023-03-01T00:59:20;10.43;;;7.18;;
23304;SDS011;11821;51.456;8.844;2023-03-01T01:01:46;7.45;;;6.28;;
23304;SDS011;11821;51.456;8.844;2023-03-01T01:04:13;8.10;;;6.80;;
23304;SDS011;11821;51.456;8.844;2023-03-01T01:06:44;8.00;;;6.28;;
23304;SDS011;11821;51.456;8.844;2023-03-01T01:09:12;8.35;;;6.28;;
23304;SDS011;11821;51.456;8.844;2023-03-01T01:11:43;8.75;;;7.05;;
23304;SDS011;11821;51.456;8.844;2023-03-01T01:14:10;10.23;;;6.75;;
23304;SDS011;11821;51.456;8.844;2023-03-01T01:16:36;9.50;;;7.03;;
23304;SDS011;11821;51.456;8.844;2023-03-01T01:19:02;13.02;;;8.73;;
23304;SDS011;11821;51.456;8.844;2023-03-01T01:21:29;13.77;;;8.73;;
23304;SDS011;11821;51.456;8.844;2023-03-01T01:23:56;17.75;;;9.23;;
23304;SDS011;11821;51.456;8.844;2023-03-01T01:26:23;21.17;;;10.02;;
23304;SDS011;11821;51.456;8.844;2023-03-01T01:28:50;16.13;;;9.65;;
23304;SDS011;11821;51.456;8.844;2023-03-01T01:31:17;21.13;;;10.68;;
23304;SDS011;11821;51.456;8.844;2023-03-01T01:33:44;13.45;;;8.40;;
23304;SDS011;11821;51.456;8.844;2023-03-01T01:36:10;18.23;;;10.07;;
23304;SDS011;11821;51.456;8.844;2023-03-01T01:38:37;16.17;;;9.57;;
23304;SDS011;11821;51.456;8.844;2023-03-01T01:41:05;8.63;;;7.38;;
23304;SDS011;11821;51.456;8.844;2023-03-01T01:43:36;11.88;;;8.13;;
23304;SDS011;11821;51.456;8.844;2023-03-01T01:48:34;10.93;;;8.50;;
23304;SDS011;11821;51.456;8.844;2023-03-01T01:51:06;13.65;;;8.27;;
23304;SDS011;11821;51.456;8.844;2023-03-01T01:53:33;9.40;;;8.07;;
23304;SDS011;11821;51.456;8.844;2023-03-01T01:56:00;10.40;;;7.50;;
23304;SDS011;11821;51.456;8.844;2023-03-01T01:58:27;13.10;;;9.05;;
23304;SDS011;11821;51.456;8.844;2023-03-01T02:00:55;11.35;;;7.25;;
23304;SDS011;11821;51.456;8.844;2023-03-01T02:03:23;12.02;;;8.38;;
23304;SDS011;11821;51.456;8.844;2023-03-01T02:05:55;11.38;;;8.52;;
23304;SDS011;11821;51.456;8.844;2023-03-01T02:08:23;11.20;;;7.97;;
23304;SDS011;11821;51.456;8.844;2023-03-01T02:10:51;10.63;;;8.10;;
23304;SDS011;11821;51.456;8.844;2023-03-01T02:13:18;10.57;;;7.47;;
23304;SDS011;11821;51.456;8.844;2023-03-01T02:15:44;12.13;;;7.85;;
23304;SDS011;11821;51.456;8.844;2023-03-01T02:18:12;10.95;;;7.07;;
23304;SDS011;11821;51.456;8.844;2023-03-01T02:20:51;9.88;;;7.47;;
23304;SDS011;11821;51.456;8.844;2023-03-01T02:23:22;8.80;;;7.30;;
23304;SDS011;11821;51.456;8.844;2023-03-01T02:28:25;10.65;;;7.60;;
23304;SDS011;11821;51.456;8.844;2023-03-01T02:30:52;9.52;;;8.10;;
23304;SDS011;11821;51.456;8.844;2023-03-01T02:33:38;10.80;;;8.18;;
23304;SDS011;11821;51.456;8.844;2023-03-01T02:36:09;10.50;;;7.03;;
23304;SDS011;11821;51.456;8.844;2023-03-01T02:38:39;11.25;;;7.50;;
23304;SDS011;11821;51.456;8.844;2023-03-01T02:41:06;13.68;;;7.43;;
23304;SDS011;11821;51.456;8.844;2023-03-01T02:43:33;9.30;;;7.43;;
23304;SDS011;11821;51.456;8.844;2023-03-01T02:46:05;11.57;;;7.72;;
23304;SDS011;11821;51.456;8.844;2023-03-01T02:48:48;11.75;;;7.78;;
23304;SDS011;11821;51.456;8.844;2023-03-01T02:51:31;14.95;;;8.02;;
23304;SDS011;11821;51.456;8.844;2023-03-01T02:57:05;14.52;;;9.38;;
23304;SDS011;11821;51.456;8.844;2023-03-01T02:59:33;21.95;;;11.02;;
23304;SDS011;11821;51.456;8.844;2023-03-01T03:02:22;28.05;;;11.57;;
23304;SDS011;11821;51.456;8.844;2023-03-01T03:05:09;10.90;;;8.25;;
23304;SDS011;11821;51.456;8.844;2023-03-01T03:07:37;11.77;;;8.10;;
23304;SDS011;11821;51.456;8.844;2023-03-01T03:10:05;11.23;;;7.07;;
23304;SDS011;11821;51.456;8.844;2023-03-01T03:12:33;11.18;;;7.80;;
23304;SDS011;11821;51.456;8.844;2023-03-01T03:14:59;8.60;;;7.35;;
23304;SDS011;11821;51.456;8.844;2023-03-01T03:17:26;10.85;;;7.70;;
23304;SDS011;11821;51.456;8.844;2023-03-01T03:19:52;10.05;;;6.88;;
23304;SDS011;11821;51.456;8.844;2023-03-01T03:22:19;9.95;;;7.40;;
23304;SDS011;11821;51.456;8.844;2023-03-01T03:24:45;12.93;;;7.40;;
23304;SDS011;11821;51.456;8.844;2023-03-01T03:27:11;12.90;;;8.35;;
23304;SDS011;11821;51.456;8.844;2023-03-01T03:29:38;11.82;;;8.15;;
23304;SDS011;11821;51.456;8.844;2023-03-01T03:32:04;10.40;;;7.68;;
23304;SDS011;11821;51.456;8.844;2023-03-01T03:34:31;11.45;;;7.75;;
23304;SDS011;11821;51.456;8.844;2023-03-01T03:36:57;12.40;;;8.25;;
23304;SDS011;11821;51.456;8.844;2023-03-01T03:39:27;11.40;;;8.18;;
23304;SDS011;11821;51.456;8.844;2023-03-01T03:41:54;10.50;;;7.47;;
23304;SDS011;11821;51.456;8.844;2023-03-01T03:44:21;14.60;;;7.60;;
23304;SDS011;11821;51.456;8.844;2023-03-01T03:46:47;9.30;;;7.07;;
23304;SDS011;11821;51.456;8.844;2023-03-01T03:49:13;10.50;;;7.70;;
23304;SDS011;11821;51.456;8.844;2023-03-01T03:51:40;14.85;;;8.35;;
23304;SDS011;11821;51.456;8.844;2023-03-01T03:54:06;12.35;;;7.70;;
23304;SDS011;11821;51.456;8.844;2023-03-01T03:56:33;13.95;;;8.63;;
23304;SDS011;11821;51.456;8.844;2023-03-01T03:59:00;11.77;;;8.50;;
23304;SDS011;11821;51.456;8.844;2023-03-01T04:01:26;12.23;;;7.72;;
23304;SDS011;11821;51.456;8.844;2023-03-01T04:03:53;9.10;;;7.80;;
23304;SDS011;11821;51.456;8.844;2023-03-01T04:06:20;12.02;;;8.52;;
23304;SDS011;11821;51.456;8.844;2023-03-01T04:08:46;10.82;;;7.82;;
23304;SDS011;11821;51.456;8.844;2023-03-01T04:11:16;11.48;;;7.65;;
23304;SDS011;11821;51.456;8.844;2023-03-01T04:13:52;11.88;;;7.97;;
23304;SDS011;11821;51.456;8.844;2023-03-01T04:16:19;10.48;;;8.38;;
23304;SDS011;11821;51.456;8.844;2023-03-01T04:18:46;12.10;;;7.82;;
23304;SDS011;11821;51.456;8.844;2023-03-01T04:21:13;10.32;;;7.80;;
23304;SDS011;11821;51.456;8.844;2023-03-01T04:23:40;12.80;;;8.32;;
23304;SDS011;11821;51.456;8.844;2023-03-01T04:26:06;10.38;;;8.18;;
23304;SDS011;11821;51.456;8.844;2023-03-01T04:28:34;10.77;;;8.30;;
23304;SDS011;11821;51.456;8.844;2023-03-01T04:31:02;10.27;;;7.72;;
23304;SDS011;11821;51.456;8.844;2023-03-01T04:33:39;11.82;;;7.75;;
23304;SDS011;11821;51.456;8.844;2023-03-01T04:36:06;10.68;;;7.78;;
23304;SDS011;11821;51.456;8.844;2023-03-01T04:38:34;11.70;;;8.18;;
23304;SDS011;11821;51.456;8.844;2023-03-01T04:41:03;11.40;;;7.50;;
23304;SDS011;11821;51.456;8.844;2023-03-01T04:43:30;10.75;;;8.38;;
23304;SDS011;11821;51.456;8.844;2023-03-01T04:46:00;8.60;;;6.90;;
23304;SDS011;11821;51.456;8.844;2023-03-01T04:48:28;9.95;;;7.57;;
23304;SDS011;11821;51.456;8.844;2023-03-01T04:50:54;11.23;;;8.05;;
23304;SDS011;11821;51.456;8.844;2023-03-01T04:53:21;13.90;;;8.27;;
23304;SDS011;11821;51.456;8.844;2023-03-01T04:55:47;11.88;;;8.32;;
23304;SDS011;11821;51.456;8.844;2023-03-01T04:58:14;8.05;;;6.85;;
23304;SDS011;11821;51.456;8.844;2023-03-01T05:00:40;10.80;;;7.72;;
23304;SDS011;11821;51.456;8.844;2023-03-01T05:03:07;13.10;;;8.77;;
23304;SDS011;11821;51.456;8.844;2023-03-01T05:05:35;9.52;;;7.95;;
23304;SDS011;11821;51.456;8.844;2023-03-01T05:08:03;11.30;;;7.55;;
23304;SDS011;11821;51.456;8.844;2023-03-01T05:10:31;11.05;;;8.55;;
23304;SDS011;11821;51.456;8.844;2023-03-01T05:12:58;22.45;;;9.15;;
23304;SDS011;11821;51.456;8.844;2023-03-01T05:15:25;14.02;;;8.75;;
23304;SDS011;11821;51.456;8.844;2023-03-01T05:17:53;13.85;;;8.27;;
23304;SDS011;11821;51.456;8.844;2023-03-01T05:20:19;10.48;;;7.80;;
23304;SDS011;11821;51.456;8.844;2023-03-01T05:22:50;14.02;;;8.93;;
23304;SDS011;11821;51.456;8.844;2023-03-01T05:25:16;8.50;;;6.93;;
23304;SDS011;11821;51.456;8.844;2023-03-01T05:27:43;15.18;;;9.07;;
23304;SDS011;11821;51.456;8.844;2023-03-01T05:30:09;14.20;;;9.15;;
23304;SDS011;11821;51.456;8.844;2023-03-01T05:32:43;12.63;;;9.65;;
23304;SDS011;11821;51.456;8.844;2023-03-01T05:35:11;13.75;;;9.10;;
23304;SDS011;11821;51.456;8.844;2023-03-01T05:37:45;13.77;;;9.17;;
23304;SDS011;11821;51.456;8.844;2023-03-01T05:40:12;12.30;;;7.82;;
23304;SDS011;11821;51.456;8.844;2023-03-01T05:42:43;14.90;;;8.90;;
23304;SDS011;11821;51.456;8.844;2023-03-01T05:45:10;12.38;;;8.73;;
23304;SDS011;11821;51.456;8.844;2023-03-01T05:47:38;9.13;;;8.10;;
23304;SDS011;11821;51.456;8.844;2023-03-01T05:50:13;15.88;;;9.10;;
23304;SDS011;11821;51.456;8.844;2023-03-01T05:52:39;11.85;;;8.00;;
23304;SDS011;11821;51.456;8.844;2023-03-01T05:55:06;11.10;;;7.85;;
23304;SDS011;11821;51.456;8.844;2023-03-01T05:57:32;11.90;;;7.95;;
23304;SDS011;11821;51.456;8.844;2023-03-01T05:59:59;12.50;;;8.35;;
23304;SDS011;11821;51.456;8.844;2023-03-01T06:02:25;10.15;;;7.95;;
23304;SDS011;11821;51.456;8.844;2023-03-01T06:04:52;12.75;;;8.52;;
23304;SDS011;11821;51.456;8.844;2023-03-01T06:07:19;14.15;;;8.88;;
23304;SDS011;11821;51.456;8.844;2023-03-01T06:09:45;15.05;;;8.55;;
23304;SDS011;11821;51.456;8.844;2023-03-01T06:12:11;12.55;;;8.55;;
23304;SDS011;11821;51.456;8.844;2023-03-01T06:14:38;11.18;;;7.90;;
23304;SDS011;11821;51.456;8.844;2023-03-01T06:17:04;13.15;;;7.70;;
23304;SDS011;11821;51.456;8.844;2023-03-01T06:19:31;9.77;;;7.68;;
23304;SDS011;11821;51.456;8.844;2023-03-01T06:21:57;13.65;;;8.93;;
23304;SDS011;11821;51.456;8.844;2023-03-01T06:24:23;15.45;;;8.43;;
23304;SDS011;11821;51.456;8.844;2023-03-01T06:26:50;12.45;;;8.45;;
23304;SDS011;11821;51.456;8.844;2023-03-01T06:29:18;14.15;;;9.40;;
23304;SDS011;11821;51.456;8.844;2023-03-01T06:31:45;10.73;;;8.23;;
23304;SDS011;11821;51.456;8.844;2023-03-01T06:34:11;14.40;;;8.90;;
23304;SDS011;11821;51.456;8.844;2023-03-01T06:36:39;14.80;;;8.40;;
23304;SDS011;11821;51.456;8.844;2023-03-01T06:39:05;10.38;;;8.32;;
23304;SDS011;11821;51.456;8.844;2023-03-01T06:41:32;14.23;;;8.88;;
23304;SDS011;11821;51.456;8.844;2023-03-01T06:43:59;9.82;;;6.43;;
23304;SDS011;11821;51.456;8.844;2023-03-01T06:46:26;10.43;;;8.25;;
23304;SDS011;11821;51.456;8.844;2023-03-01T06:48:52;13.98;;;8.93;;
23304;SDS011;11821;51.456;8.844;2023-03-01T06:51:18;13.80;;;9.25;;
23304;SDS011;11821;51.456;8.844;2023-03-01T06:53:45;14.02;;;7.93;;
23304;SDS011;11821;51.456;8.844;2023-03-01T06:56:12;12.07;;;8.77;;
23304;SDS011;11821;51.456;8.844;2023-03-01T06:58:38;14.40;;;10.55;;
23304;SDS011;11821;51.456;8.844;2023-03-01T07:01:05;20.75;;;10.70;;
23304;SDS011;11821;51.456;8.844;2023-03-01T07:03:32;20.65;;;11.05;;
23304;SDS011;11821;51.456;8.844;2023-03-01T07:05:58;15.80;;;10.00;;
23304;SDS011;11821;51.456;8.844;2023-03-01T07:08:25;17.15;;;9.38;;
23304;SDS011;11821;51.456;8.844;2023-03-01T07:10:55;9.85;;;7.85;;
23304;SDS011;11821;51.456;8.844;2023-03-01T07:13:22;14.93;;;9.82;;
23304;SDS011;11821;51.456;8.844;2023-03-01T07:15:48;15.98;;;10.48;;
23304;SDS011;11821;51.456;8.844;2023-03-01T07:18:15;15.07;;;9.55;;
23304;SDS011;11821;51.456;8.844;2023-03-01T07:20:41;17.17;;;10.07;;
23304;SDS011;11821;51.456;8.844;2023-03-01T07:23:08;11.63;;;9.15;;
23304;SDS011;11821;51.456;8.844;2023-03-01T07:25:34;14.73;;;10.38;;
23304;SDS011;11821;51.456;8.844;2023-03-01T07:28:00;14.85;;;9.85;;
23304;SDS011;11821;51.456;8.844;2023-03-01T07:30:27;13.60;;;7.95;;
23304;SDS011;11821;51.456;8.844;2023-03-01T07:32:54;15.27;;;10.55;;
23304;SDS011;11821;51.456;8.844;2023-03-01T07:35:21;17.42;;;10.77;;
23304;SDS011;11821;51.456;8.844;2023-03-01T07:37:47;16.55;;;10.60;;
23304;SDS011;11821;51.456;8.844;2023-03-01T07:40:14;14.45;;;10.68;;
23304;SDS011;11821;51.456;8.844;2023-03-01T07:42:40;13.68;;;9.57;;
23304;SDS011;11821;51.456;8.844;2023-03-01T07:45:07;15.35;;;9.95;;
23304;SDS011;11821;51.456;8.844;2023-03-01T07:47:33;14.27;;;10.13;;
23304;SDS011;11821;51.456;8.844;2023-03-01T07:50:00;21.55;;;10.70;;
23304;SDS011;11821;51.456;8.844;2023-03-01T07:52:27;17.45;;;11.10;;
23304;SDS011;11821;51.456;8.844;2023-03-01T07:54:53;13.07;;;10.20;;
23304;SDS011;11821;51.456;8.844;2023-03-01T07:57:19;14.40;;;9.93;;
23304;SDS011;11821;51.456;8.844;2023-03-01T07:59:46;14.85;;;10.30;;
23304;SDS011;11821;51.456;8.844;2023-03-01T08:02:12;21.25;;;11.80;;
23304;SDS011;11821;51.456;8.844;2023-03-01T08:04:41;14.73;;;10.25;;
23304;SDS011;11821;51.456;8.844;2023-03-01T08:07:07;14.80;;;10.93;;
23304;SDS011;11821;51.456;8.844;2023-03-01T08:09:34;14.50;;;9.95;;
23304;SDS011;11821;51.456;8.844;2023-03-01T08:12:02;17.88;;;10.63;;
23304;SDS011;11821;51.456;8.844;2023-03-01T08:14:30;15.85;;;11.20;;
23304;SDS011;11821;51.456;8.844;2023-03-01T08:16:56;13.23;;;9.48;;
23304;SDS011;11821;51.456;8.844;2023-03-01T08:19:23;14.02;;;10.40;;
23304;SDS011;11821;51.456;8.844;2023-03-01T08:21:50;16.55;;;11.10;;
23304;SDS011;11821;51.456;8.844;2023-03-01T08:24:16;15.02;;;10.13;;
23304;SDS011;11821;51.456;8.844;2023-03-01T08:26:43;14.63;;;10.48;;
23304;SDS011;11821;51.456;8.844;2023-03-01T08:29:09;16.75;;;9.18;;
23304;SDS011;11821;51.456;8.844;2023-03-01T08:31:36;23.67;;;13.00;;
23304;SDS011;11821;51.456;8.844;2023-03-01T08:34:05;21.95;;;13.82;;
23304;SDS011;11821;51.456;8.844;2023-03-01T08:36:32;20.75;;;14.35;;
23304;SDS011;11821;51.456;8.844;2023-03-01T08:38:59;22.33;;;14.23;;
23304;SDS011;11821;51.456;8.844;2023-03-01T08:41:26;20.38;;;14.18;;
23304;SDS011;11821;51.456;8.844;2023-03-01T08:43:52;18.10;;;12.73;;
23304;SDS011;11821;51.456;8.844;2023-03-01T08:46:34;17.52;;;11.75;;
23304;SDS011;11821;51.456;8.844;2023-03-01T08:49:05;16.00;;;11.90;;
23304;SDS011;11821;51.456;8.844;2023-03-01T08:51:32;16.33;;;10.93;;
23304;SDS011;11821;51.456;8.844;2023-03-01T08:54:05;14.27;;;11.13;;
23304;SDS011;11821;51.456;8.844;2023-03-01T08:56:32;17.05;;;11.30;;
23304;SDS011;11821;51.456;8.844;2023-03-01T08:58:59;14.00;;;10.63;;
23304;SDS011;11821;51.456;8.844;2023-03-01T09:01:26;13.52;;;10.20;;
23304;SDS011;11821;51.456;8.844;2023-03-01T09:03:52;11.93;;;8.93;;
23304;SDS011;11821;51.456;8.844;2023-03-01T09:06:19;13.32;;;10.07;;
23304;SDS011;11821;51.456;8.844;2023-03-01T09:08:46;14.77;;;8.65;;
23304;SDS011;11821;51.456;8.844;2023-03-01T09:11:14;10.15;;;8.50;;
23304;SDS011;11821;51.456;8.844;2023-03-01T09:13:42;9.18;;;7.28;;
23304;SDS011;11821;51.456;8.844;2023-03-01T09:16:08;11.48;;;7.47;;
23304;SDS011;11821;51.456;8.844;2023-03-01T09:18:35;9.57;;;7.03;;
23304;SDS011;11821;51.456;8.844;2023-03-01T09:21:02;9.65;;;7.30;;
23304;SDS011;11821;51.456;8.844;2023-03-01T09:23:35;9.57;;;6.88;;
23304;SDS011;11821;51.456;8.844;2023-03-01T09:26:04;9.95;;;7.30;;
23304;SDS011;11821;51.456;8.844;2023-03-01T09:28:31;12.48;;;7.25;;
23304;SDS011;11821;51.456;8.844;2023-03-01T09:30:58;12.13;;;7.30;;
23304;SDS011;11821;51.456;8.844;2023-03-01T09:33:26;7.85;;;6.25;;
23304;SDS011;11821;51.456;8.844;2023-03-01T09:35:56;8.43;;;6.07;;
23304;SDS011;11821;51.456;8.844;2023-03-01T09:38:22;10.02;;;7.03;;
23304;SDS011;11821;51.456;8.844;2023-03-01T09:40:49;6.68;;;5.38;;
23304;SDS011;11821;51.456;8.844;2023-03-01T09:43:21;8.93;;;6.28;;
23304;SDS011;11821;51.456;8.844;2023-03-01T09:45:49;7.57;;;5.32;;
23304;SDS011;11821;51.456;8.844;2023-03-01T09:48:18;7.10;;;5.38;;
23304;SDS011;11821;51.456;8.844;2023-03-01T09:50:47;9.52;;;6.15;;
23304;SDS011;11821;51.456;8.844;2023-03-01T09:53:26;8.45;;;5.35;;
23304;SDS011;11821;51.456;8.844;2023-03-01T09:56:05;7.03;;;4.80;;
23304;SDS011;11821;51.456;8.844;2023-03-01T09:58:54;7.47;;;4.95;;
23304;SDS011;11821;51.456;8.844;2023-03-01T10:01:34;6.43;;;4.88;;
23304;SDS011;11821;51.456;8.844;2023-03-01T10:04:09;5.85;;;5.00;;
23304;SDS011;11821;51.456;8.844;2023-03-01T10:06:37;8.32;;;5.28;;
23304;SDS011;11821;51.456;8.844;2023-03-01T10:09:10;10.48;;;5.00;;
23304;SDS011;11821;51.456;8.844;2023-03-01T10:11:38;7.97;;;5.32;;
23304;SDS011;11821;51.456;8.844;2023-03-01T10:14:05;6.82;;;5.03;;
23304;SDS011;11821;51.456;8.844;2023-03-01T10:19:13;9.25;;;6.43;;
23304;SDS011;11821;51.456;8.844;2023-03-01T10:21:41;6.63;;;5.13;;
23304;SDS011;11821;51.456;8.844;2023-03-01T10:24:13;6.35;;;5.07;;
23304;SDS011;11821;51.456;8.844;2023-03-01T10:26:56;7.10;;;4.80;;
23304;SDS011;11821;51.456;8.844;2023-03-01T10:29:29;7.15;;;5.32;;
23304;SDS011;11821;51.456;8.844;2023-03-01T10:31:57;10.30;;;5.70;;
23304;SDS011;11821;51.456;8.844;2023-03-01T10:36:55;6.57;;;5.03;;
23304;SDS011;11821;51.456;8.844;2023-03-01T10:39:23;7.22;;;5.38;;
23304;SDS011;11821;51.456;8.844;2023-03-01T10:47:04;8.93;;;5.60;;
23304;SDS011;11821;51.456;8.844;2023-03-01T10:49:31;7.68;;;5.15;;
23304;SDS011;11821;51.456;8.844;2023-03-01T10:51:58;5.82;;;5.10;;
23304;SDS011;11821;51.456;8.844;2023-03-01T10:54:37;9.43;;;5.80;;
23304;SDS011;11821;51.456;8.844;2023-03-01T10:57:05;8.60;;;5.53;;
23304;SDS011;11821;51.456;8.844;2023-03-01T10:59:36;6.85;;;5.30;;
23304;SDS011;11821;51.456;8.844;2023-03-01T11:04:35;7.55;;;5.60;;
23304;SDS011;11821;51.456;8.844;2023-03-01T11:07:02;7.60;;;5.60;;
23304;SDS011;11821;51.456;8.844;2023-03-01T11:09:32;8.10;;;5.40;;
23304;SDS011;11821;51.456;8.844;2023-03-01T11:12:03;5.85;;;5.18;;
23304;SDS011;11821;51.456;8.844;2023-03-01T11:14:37;8.45;;;5.55;;
23304;SDS011;11821;51.456;8.844;2023-03-01T11:19:38;7.82;;;5.30;;
23304;SDS011;11821;51.456;8.844;2023-03-01T11:24:39;6.75;;;5.40;;
23304;SDS011;11821;51.456;8.844;2023-03-01T11:27:17;7.38;;;5.85;;
23304;SDS011;11821;51.456;8.844;2023-03-01T11:29:46;6.43;;;5.50;;
23304;SDS011;11821;51.456;8.844;2023-03-01T11:32:16;10.67;;;5.87;;
23304;SDS011;11821;51.456;8.844;2023-03-01T11:34:54;9.13;;;5.88;;
23304;SDS011;11821;51.456;8.844;2023-03-01T11:37:28;6.80;;;5.20;;
23304;SDS011;11821;51.456;8.844;2023-03-01T11:40:16;7.50;;;5.55;;
23304;SDS011;11821;51.456;8.844;2023-03-01T11:45:20;6.78;;;5.22;;
23304;SDS011;11821;51.456;8.844;2023-03-01T11:48:07;6.57;;;5.20;;
23304;SDS011;11821;51.456;8.844;2023-03-01T11:50:42;7.18;;;6.03;;
23304;SDS011;11821;51.456;8.844;2023-03-01T11:55:51;8.05;;;5.50;;
23304;SDS011;11821;51.456;8.844;2023-03-01T12:03:42;6.95;;;5.78;;
23304;SDS011;11821;51.456;8.844;2023-03-01T12:11:41;6.50;;;5.65;;
23304;SDS011;11821;51.456;8.844;2023-03-01T12:22:01;5.90;;;5.00;;
23304;SDS011;11821;51.456;8.844;2023-03-01T12:24:41;5.60;;;4.60;;
23304;SDS011;11821;51.456;8.844;2023-03-01T12:27:26;5.68;;;5.05;;
23304;SDS011;11821;51.456;8.844;2023-03-01T12:30:09;6.57;;;5.10;;
23304;SDS011;11821;51.456;8.844;2023-03-01T12:38:06;6.38;;;4.63;;
23304;SDS011;11821;51.456;8.844;2023-03-01T12:43:36;5.20;;;4.68;;
23304;SDS011;11821;51.456;8.844;2023-03-01T12:48:38;6.63;;;4.50;;
23304;SDS011;11821;51.456;8.844;2023-03-01T12:51:26;5.32;;;4.28;;
23304;SDS011;11821;51.456;8.844;2023-03-01T12:53:55;6.18;;;4.25;;
23304;SDS011;11821;51.456;8.844;2023-03-01T12:56:26;9.18;;;8.27;;
23304;SDS011;11821;51.456;8.844;2023-03-01T13:06:58;4.90;;;4.28;;
23304;SDS011;11821;51.456;8.844;2023-03-01T13:09:37;5.57;;;3.53;;
23304;SDS011;11821;51.456;8.844;2023-03-01T13:14:53;4.97;;;3.80;;
23304;SDS011;11821;51.456;8.844;2023-03-01T13:17:30;6.20;;;3.85;;
23304;SDS011;11821;51.456;8.844;2023-03-01T13:19:57;5.30;;;3.90;;
23304;SDS011;11821;51.456;8.844;2023-03-01T13:22:33;5.22;;;3.88;;
23304;SDS011;11821;51.456;8.844;2023-03-01T13:25:01;4.70;;;4.20;;
23304;SDS011;11821;51.456;8.844;2023-03-01T13:27:28;4.07;;;3.35;;
23304;SDS011;11821;51.456;8.844;2023-03-01T13:29:56;6.63;;;4.30;;
23304;SDS011;11821;51.456;8.844;2023-03-01T13:34:54;3.60;;;3.30;;
23304;SDS011;11821;51.456;8.844;2023-03-01T13:37:22;4.95;;;4.10;;
23304;SDS011;11821;51.456;8.844;2023-03-01T13:39:51;5.15;;;3.60;;
23304;SDS011;11821;51.456;8.844;2023-03-01T13:42:31;5.63;;;3.58;;
23304;SDS011;11821;51.456;8.844;2023-03-01T13:44:59;6.03;;;3.72;;
23304;SDS011;11821;51.456;8.844;2023-03-01T13:47:26;5.57;;;3.45;;
23304;SDS011;11821;51.456;8.844;2023-03-01T13:49:55;4.90;;;4.20;;
23304;SDS011;11821;51.456;8.844;2023-03-01T13:54:55;4.68;;;3.67;;
23304;SDS011;11821;51.456;8.844;2023-03-01T13:57:24;4.30;;;3.28;;
23304;SDS011;11821;51.456;8.844;2023-03-01T13:59:52;5.50;;;3.83;;
23304;SDS011;11821;51.456;8.844;2023-03-01T14:02:18;5.22;;;3.17;;
23304;SDS011;11821;51.456;8.844;2023-03-01T14:04:46;3.92;;;3.30;;
23304;SDS011;11821;51.456;8.844;2023-03-01T14:07:22;4.30;;;3.50;;
23304;SDS011;11821;51.456;8.844;2023-03-01T14:09:54;4.00;;;3.40;;
23304;SDS011;11821;51.456;8.844;2023-03-01T14:12:34;4.00;;;3.53;;
23304;SDS011;11821;51.456;8.844;2023-03-01T14:15:06;4.95;;;3.70;;
23304;SDS011;11821;51.456;8.844;2023-03-01T14:20:17;5.18;;;4.40;;
23304;SDS011;11821;51.456;8.844;2023-03-01T14:22:44;4.93;;;3.97;;
23304;SDS011;11821;51.456;8.844;2023-03-01T14:25:17;4.25;;;3.60;;
23304;SDS011;11821;51.456;8.844;2023-03-01T14:27:45;4.95;;;3.85;;
23304;SDS011;11821;51.456;8.844;2023-03-01T14:30:19;7.05;;;5.70;;
23304;SDS011;11821;51.456;8.844;2023-03-01T14:32:57;5.22;;;3.45;;
23304;SDS011;11821;51.456;8.844;2023-03-01T14:35:25;4.75;;;3.25;;
23304;SDS011;11821;51.456;8.844;2023-03-01T14:37:52;4.22;;;3.60;;
23304;SDS011;11821;51.456;8.844;2023-03-01T14:40:29;5.38;;;3.50;;
23304;SDS011;11821;51.456;8.844;2023-03-01T14:42:57;5.45;;;3.58;;
23304;SDS011;11821;51.456;8.844;2023-03-01T14:45:24;4.13;;;3.72;;
23304;SDS011;11821;51.456;8.844;2023-03-01T14:47:52;6.32;;;3.35;;
23304;SDS011;11821;51.456;8.844;2023-03-01T14:50:29;4.55;;;3.50;;
23304;SDS011;11821;51.456;8.844;2023-03-01T14:52:59;5.18;;;4.60;;
23304;SDS011;11821;51.456;8.844;2023-03-01T14:55:29;4.28;;;3.25;;
23304;SDS011;11821;51.456;8.844;2023-03-01T14:57:56;5.70;;;3.60;;
23304;SDS011;11821;51.456;8.844;2023-03-01T15:00:28;3.38;;;2.88;;
23304;SDS011;11821;51.456;8.844;2023-03-01T15:02:55;36.85;;;5.40;;
23304;SDS011;11821;51.456;8.844;2023-03-01T15:07:52;9.95;;;3.35;;
23304;SDS011;11821;51.456;8.844;2023-03-01T15:10:23;12.02;;;3.95;;
23304;SDS011;11821;51.456;8.844;2023-03-01T15:12:50;23.33;;;4.03;;
23304;SDS011;11821;51.456;8.844;2023-03-01T15:18:13;4.80;;;3.33;;
23304;SDS011;11821;51.456;8.844;2023-03-01T15:20:39;12.70;;;4.68;;
23304;SDS011;11821;51.456;8.844;2023-03-01T15:23:06;3.95;;;3.38;;
23304;SDS011;11821;51.456;8.844;2023-03-01T15:25:43;5.65;;;3.80;;
23304;SDS011;11821;51.456;8.844;2023-03-01T15:28:12;4.60;;;3.28;;
23304;SDS011;11821;51.456;8.844;2023-03-01T15:30:44;6.75;;;3.83;;
23304;SDS011;11821;51.456;8.844;2023-03-01T15:33:32;6.10;;;3.28;;
23304;SDS011;11821;51.456;8.844;2023-03-01T15:35:58;3.65;;;3.28;;
23304;SDS011;11821;51.456;8.844;2023-03-01T15:40:51;4.25;;;3.42;;
23304;SDS011;11821;51.456;8.844;2023-03-01T15:46:03;5.78;;;3.90;;
23304;SDS011;11821;51.456;8.844;2023-03-01T15:48:29;8.02;;;4.88;;
23304;SDS011;11821;51.456;8.844;2023-03-01T15:50:57;7.88;;;3.17;;
23304;SDS011;11821;51.456;8.844;2023-03-01T15:53:24;4.20;;;3.58;;
23304;SDS011;11821;51.456;8.844;2023-03-01T15:55:50;4.85;;;4.35;;
23304;SDS011;11821;51.456;8.844;2023-03-01T15:58:18;5.18;;;3.50;;
23304;SDS011;11821;51.456;8.844;2023-03-01T16:00:46;5.53;;;3.95;;
23304;SDS011;11821;51.456;8.844;2023-03-01T16:03:14;5.50;;;3.60;;
23304;SDS011;11821;51.456;8.844;2023-03-01T16:05:47;4.97;;;3.78;;
23304;SDS011;11821;51.456;8.844;2023-03-01T16:08:14;7.90;;;3.67;;
23304;SDS011;11821;51.456;8.844;2023-03-01T16:10:41;7.07;;;4.10;;
23304;SDS011;11821;51.456;8.844;2023-03-01T16:13:10;4.22;;;3.80;;
23304;SDS011;11821;51.456;8.844;2023-03-01T16:15:37;4.97;;;3.60;;
23304;SDS011;11821;51.456;8.844;2023-03-01T16:18:05;6.35;;;4.10;;